Aarau, Switzerland
Current Conditions -  °F | °C
As of 8:50 AM on Sunday 26 Oct 2014 (Local Time) from LSZH Reporting Station
Broken Clouds Broken Clouds  
Wind Chill: 48°   Ceiling: 7500
Heat Index: 48°   Visibility: 4mi
Dew Point: 48°   Wind: 3mph
Humidity: 100%   Direction: 300°WNW
Pressure: 30.3"   Gusts: NA
Location:  47.4°N, 8.04°E
Report Text: LSZH 260650Z 30003KT 6000 FEW008 BKN075 09/09 Q1026 NOSIG
Loading
Personal Weather Stations






























Interactive Weather Map
Tropical Storm Tracking
New forecast layout! Learn more

10-Day Weather Forecast

Advertisements
Track Severe Weather on mobile